sensor_id;sensor_type;location;lat;lon;timestamp;P1;durP1;ratioP1;P2;durP2;ratioP2
14774;SDS011;7479;47.042;15.160;2023-06-22T05:24:21;15.25;;;6.82;;
14774;SDS011;7479;47.042;15.160;2023-06-22T05:29:14;12.43;;;6.40;;
14774;SDS011;7479;47.042;15.160;2023-06-22T05:34:08;16.75;;;6.93;;
14774;SDS011;7479;47.042;15.160;2023-06-22T05:39:10;11.63;;;5.93;;
14774;SDS011;7479;47.042;15.160;2023-06-22T05:44:06;16.42;;;6.63;;
14774;SDS011;7479;47.042;15.160;2023-06-22T06:03:57;19.48;;;6.85;;
14774;SDS011;7479;47.042;15.160;2023-06-22T06:08:51;21.23;;;7.22;;
14774;SDS011;7479;47.042;15.160;2023-06-22T06:13:44;17.75;;;8.38;;
14774;SDS011;7479;47.042;15.160;2023-06-22T06:18:37;17.67;;;7.07;;
14774;SDS011;7479;47.042;15.160;2023-06-22T06:23:32;14.75;;;7.53;;
14774;SDS011;7479;47.042;15.160;2023-06-22T06:28:26;16.50;;;7.20;;
14774;SDS011;7479;47.042;15.160;2023-06-22T06:33:19;12.50;;;6.75;;
14774;SDS011;7479;47.042;15.160;2023-06-22T06:38:16;13.63;;;7.05;;
14774;SDS011;7479;47.042;15.160;2023-06-22T06:43:11;22.75;;;7.55;;
14774;SDS011;7479;47.042;15.160;2023-06-22T06:48:04;18.15;;;7.72;;
14774;SDS011;7479;47.042;15.160;2023-06-22T06:52:58;15.30;;;7.70;;
14774;SDS011;7479;47.042;15.160;2023-06-22T06:57:52;13.85;;;8.07;;
14774;SDS011;7479;47.042;15.160;2023-06-22T07:02:46;17.33;;;9.13;;
14774;SDS011;7479;47.042;15.160;2023-06-22T07:07:40;13.98;;;8.50;;
14774;SDS011;7479;47.042;15.160;2023-06-22T07:12:34;18.55;;;9.00;;
14774;SDS011;7479;47.042;15.160;2023-06-22T07:17:28;18.15;;;9.00;;
14774;SDS011;7479;47.042;15.160;2023-06-22T07:22:23;17.98;;;9.27;;
14774;SDS011;7479;47.042;15.160;2023-06-22T07:27:17;14.30;;;8.88;;
14774;SDS011;7479;47.042;15.160;2023-06-22T07:32:11;14.90;;;8.90;;
14774;SDS011;7479;47.042;15.160;2023-06-22T07:37:05;15.15;;;8.63;;
14774;SDS011;7479;47.042;15.160;2023-06-22T07:42:00;17.45;;;9.07;;
14774;SDS011;7479;47.042;15.160;2023-06-22T07:46:53;11.60;;;8.52;;
14774;SDS011;7479;47.042;15.160;2023-06-22T07:51:47;18.30;;;9.20;;
14774;SDS011;7479;47.042;15.160;2023-06-22T07:56:40;20.95;;;10.95;;
14774;SDS011;7479;47.042;15.160;2023-06-22T08:01:36;18.85;;;11.25;;
14774;SDS011;7479;47.042;15.160;2023-06-22T08:06:29;15.93;;;11.00;;
14774;SDS011;7479;47.042;15.160;2023-06-22T08:11:23;18.60;;;10.95;;
14774;SDS011;7479;47.042;15.160;2023-06-22T08:16:17;16.83;;;10.73;;
14774;SDS011;7479;47.042;15.160;2023-06-22T08:21:12;15.93;;;9.95;;
14774;SDS011;7479;47.042;15.160;2023-06-22T08:26:05;16.23;;;10.93;;
14774;SDS011;7479;47.042;15.160;2023-06-22T08:30:59;14.07;;;9.25;;
14774;SDS011;7479;47.042;15.160;2023-06-22T08:35:53;16.90;;;10.82;;
14774;SDS011;7479;47.042;15.160;2023-06-22T08:40:48;17.33;;;11.70;;
14774;SDS011;7479;47.042;15.160;2023-06-22T08:45:41;17.70;;;11.45;;
14774;SDS011;7479;47.042;15.160;2023-06-22T08:50:36;17.38;;;11.07;;
14774;SDS011;7479;47.042;15.160;2023-06-22T08:55:30;19.20;;;12.40;;
14774;SDS011;7479;47.042;15.160;2023-06-22T09:00:25;16.13;;;12.30;;
14774;SDS011;7479;47.042;15.160;2023-06-22T09:05:20;15.73;;;11.32;;
14774;SDS011;7479;47.042;15.160;2023-06-22T09:10:14;18.02;;;11.52;;
14774;SDS011;7479;47.042;15.160;2023-06-22T09:15:08;15.20;;;11.32;;
14774;SDS011;7479;47.042;15.160;2023-06-22T09:20:08;21.23;;;12.18;;
14774;SDS011;7479;47.042;15.160;2023-06-22T09:25:03;18.88;;;10.95;;
14774;SDS011;7479;47.042;15.160;2023-06-22T09:29:58;22.45;;;11.88;;
14774;SDS011;7479;47.042;15.160;2023-06-22T09:34:52;17.70;;;11.43;;
14774;SDS011;7479;47.042;15.160;2023-06-22T09:39:46;19.55;;;12.90;;
14774;SDS011;7479;47.042;15.160;2023-06-22T09:44:40;19.55;;;12.13;;
14774;SDS011;7479;47.042;15.160;2023-06-22T09:49:34;13.75;;;10.57;;
14774;SDS011;7479;47.042;15.160;2023-06-22T09:54:39;16.60;;;11.88;;
14774;SDS011;7479;47.042;15.160;2023-06-22T09:59:34;16.58;;;9.93;;
14774;SDS011;7479;47.042;15.160;2023-06-22T10:04:27;17.05;;;10.30;;
14774;SDS011;7479;47.042;15.160;2023-06-22T10:09:21;18.48;;;10.38;;
14774;SDS011;7479;47.042;15.160;2023-06-22T10:14:14;16.38;;;9.85;;
14774;SDS011;7479;47.042;15.160;2023-06-22T10:19:09;16.42;;;10.15;;
14774;SDS011;7479;47.042;15.160;2023-06-22T10:24:03;16.50;;;9.73;;
14774;SDS011;7479;47.042;15.160;2023-06-22T10:28:58;13.68;;;10.20;;
14774;SDS011;7479;47.042;15.160;2023-06-22T10:33:57;18.10;;;10.10;;
14774;SDS011;7479;47.042;15.160;2023-06-22T10:38:52;16.30;;;9.85;;
14774;SDS011;7479;47.042;15.160;2023-06-22T10:43:47;20.55;;;9.77;;
14774;SDS011;7479;47.042;15.160;2023-06-22T10:48:40;17.95;;;9.82;;
14774;SDS011;7479;47.042;15.160;2023-06-22T10:53:33;17.08;;;9.20;;
14774;SDS011;7479;47.042;15.160;2023-06-22T10:58:28;19.75;;;10.13;;
14774;SDS011;7479;47.042;15.160;2023-06-22T11:03:22;17.30;;;10.52;;
14774;SDS011;7479;47.042;15.160;2023-06-22T11:08:15;14.77;;;10.90;;
14774;SDS011;7479;47.042;15.160;2023-06-22T11:13:09;14.88;;;11.07;;
14774;SDS011;7479;47.042;15.160;2023-06-22T11:18:04;13.15;;;11.38;;
14774;SDS011;7479;47.042;15.160;2023-06-22T11:22:58;15.95;;;11.43;;
14774;SDS011;7479;47.042;15.160;2023-06-22T11:27:52;17.02;;;10.52;;
14774;SDS011;7479;47.042;15.160;2023-06-22T11:32:45;14.88;;;10.27;;
14774;SDS011;7479;47.042;15.160;2023-06-22T11:37:40;20.38;;;9.95;;
14774;SDS011;7479;47.042;15.160;2023-06-22T11:42:36;19.55;;;10.32;;
14774;SDS011;7479;47.042;15.160;2023-06-22T11:47:30;21.40;;;10.50;;
14774;SDS011;7479;47.042;15.160;2023-06-22T11:52:23;15.75;;;9.77;;
14774;SDS011;7479;47.042;15.160;2023-06-22T11:57:19;16.70;;;9.93;;
14774;SDS011;7479;47.042;15.160;2023-06-22T12:02:12;14.82;;;10.20;;
14774;SDS011;7479;47.042;15.160;2023-06-22T12:07:06;13.68;;;10.05;;
14774;SDS011;7479;47.042;15.160;2023-06-22T12:11:59;19.40;;;9.82;;
14774;SDS011;7479;47.042;15.160;2023-06-22T12:16:55;16.30;;;10.82;;
14774;SDS011;7479;47.042;15.160;2023-06-22T12:21:48;14.73;;;11.30;;
14774;SDS011;7479;47.042;15.160;2023-06-22T12:26:42;19.25;;;10.70;;
14774;SDS011;7479;47.042;15.160;2023-06-22T12:31:35;16.73;;;10.90;;
14774;SDS011;7479;47.042;15.160;2023-06-22T12:36:31;17.85;;;10.13;;
14774;SDS011;7479;47.042;15.160;2023-06-22T12:41:25;20.25;;;9.90;;
14774;SDS011;7479;47.042;15.160;2023-06-22T12:46:19;15.55;;;10.10;;
14774;SDS011;7479;47.042;15.160;2023-06-22T12:51:20;21.60;;;10.98;;
14774;SDS011;7479;47.042;15.160;2023-06-22T12:56:16;16.63;;;10.63;;
14774;SDS011;7479;47.042;15.160;2023-06-22T13:01:09;19.83;;;10.45;;
14774;SDS011;7479;47.042;15.160;2023-06-22T13:06:03;19.67;;;10.57;;
14774;SDS011;7479;47.042;15.160;2023-06-22T13:10:56;16.83;;;10.77;;
14774;SDS011;7479;47.042;15.160;2023-06-22T13:15:51;17.67;;;10.35;;
14774;SDS011;7479;47.042;15.160;2023-06-22T13:20:45;17.35;;;10.82;;
14774;SDS011;7479;47.042;15.160;2023-06-22T13:25:39;20.25;;;10.68;;
14774;SDS011;7479;47.042;15.160;2023-06-22T13:30:32;19.65;;;10.45;;
14774;SDS011;7479;47.042;15.160;2023-06-22T13:35:27;17.20;;;10.30;;
14774;SDS011;7479;47.042;15.160;2023-06-22T13:40:21;14.55;;;10.23;;
14774;SDS011;7479;47.042;15.160;2023-06-22T13:45:14;14.75;;;10.40;;
14774;SDS011;7479;47.042;15.160;2023-06-22T13:50:09;14.82;;;10.20;;
14774;SDS011;7479;47.042;15.160;2023-06-22T13:55:06;21.45;;;10.27;;
14774;SDS011;7479;47.042;15.160;2023-06-22T13:59:59;18.38;;;11.15;;
14774;SDS011;7479;47.042;15.160;2023-06-22T14:05:02;20.40;;;11.90;;
14774;SDS011;7479;47.042;15.160;2023-06-22T14:09:55;18.00;;;10.63;;
14774;SDS011;7479;47.042;15.160;2023-06-22T14:14:51;19.67;;;11.48;;
14774;SDS011;7479;47.042;15.160;2023-06-22T14:19:45;19.33;;;12.30;;
14774;SDS011;7479;47.042;15.160;2023-06-22T14:24:38;20.85;;;12.05;;
14774;SDS011;7479;47.042;15.160;2023-06-22T14:29:32;19.77;;;12.15;;
14774;SDS011;7479;47.042;15.160;2023-06-22T14:34:27;20.90;;;12.43;;
14774;SDS011;7479;47.042;15.160;2023-06-22T14:39:20;18.42;;;11.90;;
14774;SDS011;7479;47.042;15.160;2023-06-22T14:44:14;19.75;;;11.88;;
14774;SDS011;7479;47.042;15.160;2023-06-22T14:49:08;16.65;;;12.00;;
14774;SDS011;7479;47.042;15.160;2023-06-22T14:54:02;17.20;;;12.95;;
14774;SDS011;7479;47.042;15.160;2023-06-22T14:58:56;19.75;;;13.23;;
14774;SDS011;7479;47.042;15.160;2023-06-22T15:03:49;16.90;;;12.40;;
14774;SDS011;7479;47.042;15.160;2023-06-22T15:08:43;19.40;;;13.40;;
14774;SDS011;7479;47.042;15.160;2023-06-22T15:13:40;17.95;;;13.15;;
14774;SDS011;7479;47.042;15.160;2023-06-22T15:18:34;24.08;;;13.77;;
14774;SDS011;7479;47.042;15.160;2023-06-22T15:23:28;16.90;;;12.57;;
14774;SDS011;7479;47.042;15.160;2023-06-22T15:28:22;18.10;;;13.32;;
14774;SDS011;7479;47.042;15.160;2023-06-22T15:33:17;19.40;;;14.82;;
14774;SDS011;7479;47.042;15.160;2023-06-22T15:38:11;19.73;;;13.05;;
14774;SDS011;7479;47.042;15.160;2023-06-22T15:43:04;18.33;;;13.10;;
14774;SDS011;7479;47.042;15.160;2023-06-22T15:47:58;19.70;;;13.05;;
14774;SDS011;7479;47.042;15.160;2023-06-22T15:52:53;20.20;;;13.25;;
14774;SDS011;7479;47.042;15.160;2023-06-22T15:57:46;21.90;;;13.60;;
14774;SDS011;7479;47.042;15.160;2023-06-22T16:02:40;26.02;;;14.00;;
14774;SDS011;7479;47.042;15.160;2023-06-22T16:07:33;19.33;;;13.75;;
14774;SDS011;7479;47.042;15.160;2023-06-22T16:12:28;21.40;;;13.38;;
14774;SDS011;7479;47.042;15.160;2023-06-22T16:17:22;19.88;;;13.52;;
14774;SDS011;7479;47.042;15.160;2023-06-22T16:22:18;19.42;;;12.85;;
14774;SDS011;7479;47.042;15.160;2023-06-22T16:27:11;22.02;;;13.68;;
14774;SDS011;7479;47.042;15.160;2023-06-22T16:32:07;18.55;;;13.40;;
14774;SDS011;7479;47.042;15.160;2023-06-22T16:37:01;19.92;;;12.88;;
14774;SDS011;7479;47.042;15.160;2023-06-22T16:41:55;18.95;;;13.55;;
14774;SDS011;7479;47.042;15.160;2023-06-22T16:46:48;19.13;;;13.35;;
14774;SDS011;7479;47.042;15.160;2023-06-22T16:51:43;18.33;;;13.82;;
14774;SDS011;7479;47.042;15.160;2023-06-22T16:56:36;19.33;;;13.98;;
14774;SDS011;7479;47.042;15.160;2023-06-22T17:01:30;21.25;;;13.85;;
14774;SDS011;7479;47.042;15.160;2023-06-22T17:06:26;19.77;;;13.15;;
14774;SDS011;7479;47.042;15.160;2023-06-22T17:11:21;22.95;;;14.18;;
14774;SDS011;7479;47.042;15.160;2023-06-22T17:16:15;17.02;;;13.00;;
14774;SDS011;7479;47.042;15.160;2023-06-22T17:21:10;22.95;;;13.85;;
14774;SDS011;7479;47.042;15.160;2023-06-22T17:26:05;22.38;;;14.05;;
14774;SDS011;7479;47.042;15.160;2023-06-22T17:31:10;21.73;;;13.63;;
14774;SDS011;7479;47.042;15.160;2023-06-22T17:36:04;22.42;;;13.70;;
14774;SDS011;7479;47.042;15.160;2023-06-22T17:41:03;16.60;;;13.40;;
14774;SDS011;7479;47.042;15.160;2023-06-22T17:46:00;26.92;;;13.85;;
14774;SDS011;7479;47.042;15.160;2023-06-22T17:50:55;21.92;;;13.63;;
14774;SDS011;7479;47.042;15.160;2023-06-22T17:55:49;19.90;;;13.43;;
14774;SDS011;7479;47.042;15.160;2023-06-22T18:00:46;15.55;;;13.82;;
14774;SDS011;7479;47.042;15.160;2023-06-22T18:05:44;20.77;;;15.02;;
14774;SDS011;7479;47.042;15.160;2023-06-22T18:10:41;21.35;;;15.48;;
14774;SDS011;7479;47.042;15.160;2023-06-22T18:15:36;20.35;;;15.57;;
14774;SDS011;7479;47.042;15.160;2023-06-22T18:20:30;20.02;;;15.13;;
14774;SDS011;7479;47.042;15.160;2023-06-22T18:25:27;22.38;;;14.93;;
14774;SDS011;7479;47.042;15.160;2023-06-22T18:30:26;19.55;;;16.17;;
14774;SDS011;7479;47.042;15.160;2023-06-22T18:35:21;22.70;;;16.13;;
14774;SDS011;7479;47.042;15.160;2023-06-22T18:40:14;20.35;;;15.38;;
14774;SDS011;7479;47.042;15.160;2023-06-22T18:45:21;18.45;;;15.10;;
14774;SDS011;7479;47.042;15.160;2023-06-22T18:50:17;19.30;;;14.57;;
14774;SDS011;7479;47.042;15.160;2023-06-22T18:55:28;21.42;;;15.68;;
14774;SDS011;7479;47.042;15.160;2023-06-22T19:00:29;20.85;;;15.52;;
14774;SDS011;7479;47.042;15.160;2023-06-22T19:05:37;23.77;;;15.80;;
14774;SDS011;7479;47.042;15.160;2023-06-22T19:10:38;21.05;;;15.73;;
14774;SDS011;7479;47.042;15.160;2023-06-22T19:15:34;22.08;;;16.70;;
14774;SDS011;7479;47.042;15.160;2023-06-22T19:20:32;23.50;;;16.45;;
14774;SDS011;7479;47.042;15.160;2023-06-22T19:25:28;25.33;;;15.55;;
14774;SDS011;7479;47.042;15.160;2023-06-22T19:30:25;27.75;;;16.00;;
14774;SDS011;7479;47.042;15.160;2023-06-22T19:35:21;22.25;;;15.98;;
14774;SDS011;7479;47.042;15.160;2023-06-22T19:40:15;24.35;;;16.67;;
14774;SDS011;7479;47.042;15.160;2023-06-22T19:45:15;20.58;;;15.63;;
14774;SDS011;7479;47.042;15.160;2023-06-22T19:50:10;24.08;;;15.55;;
14774;SDS011;7479;47.042;15.160;2023-06-22T19:55:04;21.75;;;16.20;;
14774;SDS011;7479;47.042;15.160;2023-06-22T20:00:06;23.35;;;16.92;;
14774;SDS011;7479;47.042;15.160;2023-06-22T20:05:09;20.35;;;16.90;;
14774;SDS011;7479;47.042;15.160;2023-06-22T20:10:05;22.52;;;17.48;;
14774;SDS011;7479;47.042;15.160;2023-06-22T20:15:13;20.10;;;16.95;;
14774;SDS011;7479;47.042;15.160;2023-06-22T20:20:09;25.45;;;16.77;;
14774;SDS011;7479;47.042;15.160;2023-06-22T20:25:11;19.30;;;15.80;;
14774;SDS011;7479;47.042;15.160;2023-06-22T20:30:11;22.08;;;16.40;;
14774;SDS011;7479;47.042;15.160;2023-06-22T20:35:06;21.40;;;16.40;;
14774;SDS011;7479;47.042;15.160;2023-06-22T20:40:01;24.10;;;16.25;;
14774;SDS011;7479;47.042;15.160;2023-06-22T20:44:56;26.23;;;16.40;;
14774;SDS011;7479;47.042;15.160;2023-06-22T20:49:50;22.17;;;16.73;;
14774;SDS011;7479;47.042;15.160;2023-06-22T20:54:45;20.58;;;17.27;;
14774;SDS011;7479;47.042;15.160;2023-06-22T20:59:38;20.38;;;17.40;;
14774;SDS011;7479;47.042;15.160;2023-06-22T21:04:32;25.15;;;16.90;;
14774;SDS011;7479;47.042;15.160;2023-06-22T21:09:28;21.33;;;16.10;;
14774;SDS011;7479;47.042;15.160;2023-06-22T21:14:38;19.38;;;16.38;;
14774;SDS011;7479;47.042;15.160;2023-06-22T21:19:31;23.75;;;17.17;;
14774;SDS011;7479;47.042;15.160;2023-06-22T21:24:25;23.77;;;16.50;;
